Time;durP1;ratioP1;P1;durP2;ratioP2;P2;SDS_P1;SDS_P2;PMS_P1;PMS_P2;Temp;Humidity;BMP_temperature;BMP_pressure;BME280_temperature;BME280_humidity;BME280_pressure;Samples;Min_cycle;Max_cycle;Signal;HPM_P1;HPM_P2
2022/06/22 00:02:25;;;;;;;8.65;5.45;;;;;;;21.56;58.02;98496.63;5120350;28;20322;-93
2022/06/22 00:05:05;;;;;;;9.52;6.32;;;;;;;21.65;57.53;98501.31;5111977;28;20432;-92
2022/06/22 00:07:42;;;;;;;10.93;5.50;;;;;;;21.81;56.22;98490.16;5124557;28;20048;-93
2022/06/22 00:10:22;;;;;;;7.10;5.53;;;;;;;22.21;55.52;98516.84;5123988;28;20059;-93
2022/06/22 00:13:24;;;;;;;;;;;;;;;;;;;;;
2022/06/22 00:16:21;;;;;;;9.45;5.75;;;;;;;22.15;55.47;98484.81;5080234;28;20047;-93
2022/06/22 00:18:54;;;;;;;7.70;5.57;;;;;;;22.17;56.48;98495.53;5115644;28;20127;-93
2022/06/22 00:21:34;;;;;;;8.77;5.80;;;;;;;22.10;55.43;98495.16;5120718;28;20048;-91
2022/06/22 00:24:48;;;;;;;11.23;5.57;;;;;;;22.19;55.96;98482.75;5111204;28;20052;-92
2022/06/22 00:27:46;;;;;;;7.30;5.32;;;;;;;22.14;55.79;98496.63;5002253;28;20046;-93
2022/06/22 00:31:07;;;;;;;7.68;5.75;;;;;;;22.39;55.88;98517.25;5024928;28;20037;-92
2022/06/22 00:33:39;;;;;;;9.35;5.53;;;;;;;22.41;55.60;98520.69;5036740;28;20041;-93
2022/06/22 00:36:44;;;;;;;8.30;5.70;;;;;;;22.15;56.12;98487.53;5039975;28;20037;-94
2022/06/22 00:39:41;;;;;;;8.30;5.68;;;;;;;22.10;55.78;98478.91;5035480;28;20045;-92
2022/06/22 00:42:34;;;;;;;11.38;5.65;;;;;;;22.38;55.70;98514.66;5035677;28;20166;-92
2022/06/22 00:45:29;;;;;;;8.70;5.80;;;;;;;22.39;55.82;98506.41;5038622;28;20126;-92
2022/06/22 00:48:35;;;;;;;13.40;6.07;;;;;;;22.31;55.66;98495.31;5041008;28;20033;-94
2022/06/22 00:51:09;;;;;;;8.30;5.57;;;;;;;22.26;54.93;98478.59;5037665;28;20065;-94
2022/06/22 00:54:05;;;;;;;7.50;5.57;;;;;;;22.53;53.83;98518.84;5037018;28;20038;-93
2022/06/22 01:01:33;;;;;;;7.85;5.80;;;;;;;22.58;52.89;98504.94;4923585;29;20047;-95
2022/06/22 01:04:42;;;;;;;13.73;6.05;;;;;;;22.53;52.87;98494.47;4999695;28;20049;-93
2022/06/22 01:07:39;;;;;;;8.00;5.90;;;;;;;22.32;53.00;98465.41;5040777;28;20053;-91
2022/06/22 01:10:24;;;;;;;7.82;5.65;;;;;;;22.43;53.70;98485.38;5035702;28;20065;-93
2022/06/22 01:13:20;;;;;;;;;;;;;;;;;;;;;
2022/06/22 01:16:42;;;;;;;9.27;6.43;;;;;;;22.33;55.20;98493.34;4980694;28;19917;-94
2022/06/22 01:19:37;;;;;;;9.70;5.88;;;;;;;22.08;55.32;98465.50;4978618;28;20038;-93
2022/06/22 01:22:44;;;;;;;12.52;6.03;;;;;;;21.89;55.55;98447.13;4979734;28;20050;-92
2022/06/22 01:25:54;;;;;;;7.17;6.10;;;;;;;21.88;56.45;98456.25;4956234;28;20050;-93
2022/06/22 01:28:32;;;;;;;9.60;5.97;;;;;;;21.74;57.50;98442.91;4980222;28;20039;-93
2022/06/22 01:31:11;;;;;;;8.88;6.00;;;;;;;21.50;59.19;98435.72;4980797;28;20059;-94
2022/06/22 01:34:03;;;;;;;9.90;6.03;;;;;;;21.25;60.18;98438.53;4980345;28;20054;-93
2022/06/22 01:36:43;;;;;;;10.20;6.43;;;;;;;21.10;61.07;98441.44;5028006;28;20041;-93
2022/06/22 01:39:32;;;;;;;9.98;6.25;;;;;;;20.98;60.52;98445.06;5051987;28;20410;-92
2022/06/22 01:42:24;;;;;;;10.20;6.75;;;;;;;20.94;60.42;98462.47;5053411;28;20127;-93
2022/06/22 01:48:31;;;;;;;9.95;6.68;;;;;;;20.60;61.13;98458.69;5020175;28;20561;-94
2022/06/22 01:51:29;;;;;;;10.23;6.38;;;;;;;20.69;61.16;98474.25;5009586;28;20034;-93
2022/06/22 01:54:20;;;;;;;10.45;6.22;;;;;;;20.75;60.76;98483.75;5022745;28;20045;-92
2022/06/22 01:57:17;;;;;;;8.50;6.10;;;;;;;20.71;61.41;98473.16;5023101;28;20046;-94
2022/06/22 01:59:54;;;;;;;7.22;6.10;;;;;;;20.43;61.13;98425.66;5022421;28;20034;-93
2022/06/22 02:02:41;;;;;;;9.52;6.70;;;;;;;20.45;62.53;98444.44;5018987;28;20041;-93
2022/06/22 02:05:35;;;;;;;10.82;6.90;;;;;;;20.42;63.11;98450.06;5053533;28;20062;-94
2022/06/22 02:08:19;;;;;;;11.00;7.20;;;;;;;20.20;63.87;98421.06;5106851;28;20123;-92
2022/06/22 02:10:59;;;;;;;8.60;6.85;;;;;;;20.10;64.24;98418.16;5109456;28;20065;-94
2022/06/22 02:13:40;;;;;;;11.02;7.28;;;;;;;20.02;63.75;98416.03;5104974;28;20130;-94
2022/06/22 02:16:26;;;;;;;8.73;6.97;;;;;;;20.17;64.42;98459.06;5110314;28;20123;-94
2022/06/22 02:19:17;;;;;;;9.27;6.78;;;;;;;19.97;64.11;98428.09;5111848;28;20134;-93
2022/06/22 02:22:02;;;;;;;10.70;6.82;;;;;;;19.99;64.04;98427.00;5110510;28;20040;-93
2022/06/22 02:24:47;;;;;;;10.07;6.80;;;;;;;20.17;64.38;98450.97;5114556;28;20056;-94
2022/06/22 02:34:52;;;;;;;9.10;7.10;;;;;;;19.73;66.45;98403.72;5045882;28;20123;-95
2022/06/22 02:37:34;;;;;;;11.13;7.47;;;;;;;19.88;66.86;98435.88;5037342;28;20064;-94
2022/06/22 02:40:15;;;;;;;9.35;7.40;;;;;;;19.67;66.96;98422.03;5058807;28;20120;-93
2022/06/22 02:50:30;;;;;;;11.50;6.90;;;;;;;19.95;66.30;98443.53;5025514;28;20030;-91
2022/06/22 02:53:24;;;;;;;14.05;7.15;;;;;;;19.96;65.97;98443.44;5115459;28;20052;-93
2022/06/22 02:56:02;;;;;;;12.00;7.55;;;;;;;19.87;65.60;98417.13;5112719;28;20123;-90
2022/06/22 02:59:13;;;;;;;11.45;7.70;;;;;;;20.10;65.04;98439.75;5105274;28;20121;-92
2022/06/22 03:02:00;;;;;;;9.73;7.18;;;;;;;20.02;63.78;98413.31;5105922;28;20047;-92
2022/06/22 03:04:38;;;;;;;12.48;7.20;;;;;;;20.28;63.19;98438.44;5105693;28;20501;-92
2022/06/22 03:07:14;;;;;;;12.88;7.90;;;;;;;20.31;62.38;98427.41;5113353;28;20089;-92
2022/06/22 03:10:51;;;;;;;9.65;6.72;;;;;;;20.53;61.78;98444.75;5106865;28;20072;-95
2022/06/22 03:13:08;;;;;;;16.05;7.57;;;;;;;20.37;61.58;98428.81;5095180;28;20382;-91
2022/06/22 03:16:37;;;;;;;10.07;7.32;;;;;;;20.45;61.28;98439.03;5102635;28;20047;-93
2022/06/22 03:19:33;;;;;;;10.55;7.10;;;;;;;20.49;61.57;98440.53;5104710;28;20047;-92
2022/06/22 03:26:15;;;;;;;10.50;7.30;;;;;;;20.56;62.08;98479.66;5027195;28;20045;-94
2022/06/22 03:29:30;;;;;;;9.63;6.97;;;;;;;20.35;61.56;98443.41;5024994;28;20037;-92
2022/06/22 03:32:26;;;;;;;11.23;6.95;;;;;;;20.57;61.40;98476.00;5024615;28;20044;-93
2022/06/22 03:35:44;;;;;;;14.05;7.30;;;;;;;20.35;62.41;98444.25;4957715;29;20072;-94
2022/06/22 03:38:53;;;;;;;12.20;7.20;;;;;;;20.37;62.02;98438.75;4956659;29;20538;-93
2022/06/22 03:42:10;;;;;;;8.25;7.18;;;;;;;20.55;62.69;98486.03;4956624;29;20043;-94
2022/06/22 03:45:38;;;;;;;9.45;7.20;;;;;;;20.46;63.40;98465.94;5041810;28;20060;-93
2022/06/22 03:48:31;;;;;;;11.45;7.68;;;;;;;20.27;64.59;98444.78;5108600;28;20048;-94
2022/06/22 03:51:09;;;;;;;9.40;7.47;;;;;;;20.18;64.65;98442.78;5103514;28;20111;-94
2022/06/22 03:53:54;;;;;;;9.07;7.10;;;;;;;20.09;64.35;98435.34;5107474;28;20036;-91
2022/06/22 03:57:17;;;;;;;;;;;;;;;;;;;;;
2022/06/22 04:00:04;;;;;;;8.50;7.35;;;;;;;20.00;65.50;98427.91;5088271;28;20044;-91
2022/06/22 04:02:50;;;;;;;11.52;7.43;;;;;;;20.20;66.46;98467.81;5092765;28;20048;-92
2022/06/22 04:08:50;;;;;;;9.90;7.90;;;;;;;20.10;66.82;98464.03;5060027;28;20580;-93
2022/06/22 04:11:27;;;;;;;13.45;8.00;;;;;;;20.03;67.41;98457.34;5086380;28;20040;-92
2022/06/22 04:14:04;;;;;;;11.70;8.50;;;;;;;19.88;67.46;98429.63;5093942;28;20059;-92
2022/06/22 04:16:57;;;;;;;10.63;8.07;;;;;;;19.88;68.04;98452.06;5093159;28;20048;-94
2022/06/22 04:19:52;;;;;;;11.07;8.25;;;;;;;19.88;67.61;98460.16;5087025;28;20064;-91
2022/06/22 04:26:04;;;;;;;12.13;7.90;;;;;;;19.96;67.64;98453.38;4956790;28;20043;-94
2022/06/22 04:28:38;;;;;;;9.80;8.15;;;;;;;20.07;68.49;98492.13;4996050;28;20101;-92
2022/06/22 04:31:44;;;;;;;10.70;8.45;;;;;;;19.98;69.39;98489.22;4992534;28;20453;-94
2022/06/22 04:34:33;;;;;;;12.07;8.27;;;;;;;19.99;70.26;98496.34;4964757;28;20050;-92
2022/06/22 04:37:06;;;;;;;9.90;8.43;;;;;;;19.98;69.60;98487.38;4991861;28;20039;-92
2022/06/22 04:39:48;;;;;;;10.95;8.13;;;;;;;19.96;69.95;98470.44;4993023;28;20043;-91
2022/06/22 04:42:30;;;;;;;12.10;8.75;;;;;;;20.13;69.87;98471.94;4995130;28;20455;-92
2022/06/22 04:45:32;;;;;;;10.82;8.38;;;;;;;20.21;69.22;98455.19;4989798;28;20520;-92
2022/06/22 04:48:17;;;;;;;14.65;8.50;;;;;;;20.42;68.31;98485.19;4992777;28;20050;-93
2022/06/22 04:51:06;;;;;;;13.75;8.73;;;;;;;20.56;68.16;98476.97;4988666;28;20078;-93
2022/06/22 04:53:57;;;;;;;11.48;8.18;;;;;;;20.87;66.78;98469.34;5092716;28;20048;-94
2022/06/22 04:56:57;;;;;;;11.38;8.20;;;;;;;21.07;65.29;98448.91;5088261;28;20047;-94
2022/06/22 04:59:45;;;;;;;;;;;;;;;;;;;;;
2022/06/22 05:02:42;;;;;;;10.82;7.60;;;;;;;21.67;61.97;98449.78;5092208;28;20050;-91
2022/06/22 05:05:38;;;;;;;13.07;8.25;;;;;;;21.98;60.94;98455.50;4999243;28;20046;-93
2022/06/22 05:08:23;;;;;;;10.00;7.68;;;;;;;22.23;61.46;98467.97;5004733;28;20034;-95
2022/06/22 05:11:18;;;;;;;11.13;8.27;;;;;;;22.43;60.73;98464.53;4985961;28;20486;-92
2022/06/22 05:14:02;;;;;;;13.38;8.38;;;;;;;22.62;59.37;98465.75;5019719;28;20100;-91
2022/06/22 05:17:06;;;;;;;17.33;8.65;;;;;;;23.00;59.34;98483.44;5012904;28;20526;-93
2022/06/22 05:20:00;;;;;;;17.25;8.90;;;;;;;23.31;58.26;98498.03;5020592;28;20042;-92
2022/06/22 05:22:36;;;;;;;15.00;8.73;;;;;;;23.43;57.45;98475.31;5010736;28;20037;-92
2022/06/22 05:25:28;;;;;;;12.60;8.20;;;;;;;23.57;58.28;98480.44;5019704;28;20038;-93
2022/06/22 05:28:15;;;;;;;12.88;8.23;;;;;;;23.66;57.38;98481.50;5027019;28;20047;-93
2022/06/22 05:31:05;;;;;;;12.20;8.20;;;;;;;23.82;56.35;98485.66;5090770;28;20122;-94
2022/06/22 05:33:49;;;;;;;16.42;9.35;;;;;;;23.92;55.28;98491.97;5095965;28;20517;-92
2022/06/22 05:36:33;;;;;;;14.40;10.35;;;;;;;23.96;54.66;98507.03;5092089;28;20051;-94
2022/06/22 05:39:23;;;;;;;11.60;9.23;;;;;;;24.08;54.30;98492.38;5090211;28;20052;-96
2022/06/22 05:42:55;;;;;;;13.45;8.63;;;;;;;24.17;53.44;98504.31;5092302;28;20100;-94
2022/06/22 05:46:12;;;;;;;;;;;;;;;;;;;;;
2022/06/22 06:07:33;;;;;;;9.55;7.60;;;;;;;25.05;51.34;98513.72;4868283;29;20046;-94
2022/06/22 06:11:03;;;;;;;9.63;6.80;;;;;;;24.97;52.06;98487.22;4885797;29;20056;-96
2022/06/22 06:18:03;;;;;;;;;;;;;;;;;;;;;
2022/06/22 06:54:02;;;;;;;10.88;6.88;;;;;;;26.31;46.55;98518.38;5656422;22;15904801;-94
2022/06/22 06:57:58;;;;;;;10.55;6.65;;;;;;;26.47;45.89;98527.78;6276498;22;20422;-92
2022/06/22 07:00:29;;;;;;;9.43;6.45;;;;;;;26.50;46.64;98497.47;6293929;22;20488;-94
2022/06/22 07:03:39;;;;;;;11.88;6.75;;;;;;;26.19;45.98;98497.72;6292540;22;20030;-94
2022/06/22 07:14:17;;;;;;;10.25;6.30;;;;;;;25.70;45.53;98492.34;6088799;23;20418;-93
2022/06/22 07:17:32;;;;;;;9.93;6.35;;;;;;;25.61;46.24;98495.91;6100268;23;20029;-92
2022/06/22 07:20:35;;;;;;;9.73;6.15;;;;;;;26.02;48.20;98511.13;6235395;23;20076;-93
2022/06/22 07:23:35;;;;;;;13.25;9.35;;;;;;;26.57;45.60;98518.59;6234148;23;20016;-93
2022/06/22 07:26:59;;;;;;;11.93;7.60;;;;;;;27.16;44.80;98510.97;6173572;23;20386;-93
2022/06/22 07:30:09;;;;;;;20.02;10.02;;;;;;;27.61;43.17;98507.38;6361228;22;20076;-93
2022/06/22 07:33:43;;;;;;;7.60;6.70;;;;;;;27.96;41.08;98505.66;6251825;22;20105;-93
2022/06/22 07:37:05;;;;;;;;;;;;;;;;;;;;;
2022/06/22 07:47:33;;;;;;;;;;;;;;;;;;;;;
2022/06/22 07:53:52;;;;;;;12.30;6.47;;;;;;;27.84;39.93;98513.19;5974790;24;20020;-92
2022/06/22 07:56:21;;;;;;;9.75;6.20;;;;;;;28.08;39.96;98497.19;5970308;24;20016;-93
2022/06/22 07:59:09;;;;;;;;;;;;;;;;;;;;;
2022/06/22 08:05:43;;;;;;;;;;;;;;;;;;;;;
2022/06/22 08:08:32;;;;;;;12.13;6.43;;;;;;;28.58;37.37;98508.34;5907583;24;20009;-94
2022/06/22 08:14:33;;;;;;;10.73;6.00;;;;;;;29.18;36.15;98488.25;5988931;23;20339;-93
2022/06/22 08:21:16;;;;;;;9.90;6.30;;;;;;;28.58;37.14;98513.81;6073127;23;20019;-94
2022/06/22 08:24:09;;;;;;;10.15;6.05;;;;;;;28.68;36.27;98519.16;5966026;23;20550;-93
2022/06/22 08:26:44;;;;;;;9.15;5.82;;;;;;;28.67;36.09;98503.78;6021824;23;20020;-92
2022/06/22 08:30:00;;;;;;;8.60;5.68;;;;;;;28.41;36.73;98501.88;6012087;23;20024;-92
2022/06/22 08:33:19;;;;;;;9.20;5.80;;;;;;;28.52;37.30;98499.91;5996131;23;20023;-91
2022/06/22 08:37:50;;;;;;;8.88;6.38;;;;;;;28.56;36.94;98490.34;5998113;23;20024;-92
2022/06/22 08:39:28;;;;;;;;;;;;;;;29.27;36.64;98505.56;5919334;24;20028;-90
2022/06/22 08:42:37;;;;;;;8.90;6.40;;;;;;;28.98;36.09;98495.00;5909078;24;19927;-93
2022/06/22 08:45:28;;;;;;;11.63;6.07;;;;;;;29.44;36.07;98500.97;5953602;23;20471;-91
2022/06/22 08:48:22;;;;;;;8.55;5.93;;;;;;;29.18;33.11;98484.66;6022081;23;20110;-93
2022/06/22 08:51:22;;;;;;;9.60;5.55;;;;;;;29.28;34.41;98510.03;6065469;23;20021;-93
2022/06/22 08:54:15;;;;;;;8.63;5.60;;;;;;;29.63;34.19;98502.56;6182804;23;20024;-91
2022/06/22 08:56:49;;;;;;;7.72;5.60;;;;;;;29.68;34.29;98508.38;6224334;23;20023;-92
2022/06/22 08:59:51;;;;;;;8.80;6.00;;;;;;;29.72;34.29;98497.97;6225835;23;20023;-92
2022/06/22 09:02:52;;;;;;;11.18;6.15;;;;;;;29.71;34.89;98502.56;6164290;23;20025;-93
2022/06/22 09:05:44;;;;;;;7.03;5.72;;;;;;;29.32;34.49;98513.25;6162440;23;20088;-92
2022/06/22 09:08:47;;;;;;;12.20;6.28;;;;;;;29.51;33.96;98510.22;6101345;23;20028;-93
2022/06/22 09:11:29;;;;;;;9.02;6.00;;;;;;;29.32;33.82;98502.31;6135368;23;20100;-92
2022/06/22 09:14:41;;;;;;;7.47;6.18;;;;;;;28.95;35.54;98515.38;6136500;23;20421;-90
2022/06/22 09:17:53;;;;;;;10.60;6.00;;;;;;;29.56;35.09;98499.63;6192271;23;20021;-94
2022/06/22 09:20:38;;;;;;;7.70;6.10;;;;;;;29.87;34.39;98499.00;6194863;23;20013;-94
2022/06/22 09:23:31;;;;;;;9.98;6.18;;;;;;;30.19;34.08;98520.06;6192839;23;20017;-93
2022/06/22 09:26:16;;;;;;;9.75;6.00;;;;;;;30.15;33.96;98488.53;6193663;23;20017;-94
2022/06/22 09:28:57;;;;;;;10.82;6.90;;;;;;;30.27;33.66;98498.09;6191885;23;20410;-93
2022/06/22 09:31:54;;;;;;;7.80;6.55;;;;;;;29.85;33.68;98459.94;6193800;23;20013;-93
2022/06/22 09:34:59;;;;;;;9.43;6.25;;;;;;;30.14;33.48;98464.00;6193622;23;20055;-93
2022/06/22 09:37:53;;;;;;;7.43;6.18;;;;;;;29.74;33.69;98463.88;6133640;23;20025;-92
2022/06/22 09:40:50;;;;;;;8.70;5.85;;;;;;;30.36;33.20;98495.38;6218732;23;20088;-92
2022/06/22 09:43:50;;;;;;;9.10;6.10;;;;;;;30.34;33.63;98476.38;6223199;23;20021;-93
2022/06/22 09:47:08;;;;;;;9.77;6.20;;;;;;;30.94;32.00;98482.34;6219277;23;20024;-92
2022/06/22 09:49:54;;;;;;;;;;;;;;;31.29;31.23;98472.72;6106144;23;20018;-93
2022/06/22 09:52:49;;;;;;;7.30;5.47;;;;;;;31.49;30.04;98474.00;6216027;23;19920;-93
2022/06/22 10:09:27;;;;;;;8.68;5.93;;;;;;;32.16;28.52;98416.53;6212967;22;20345;-91
2022/06/22 10:12:43;;;;;;;7.30;5.45;;;;;;;32.29;28.08;98414.88;6200266;23;20081;-93
2022/06/22 10:15:49;;;;;;;7.05;5.22;;;;;;;32.00;27.83;98418.44;6198938;23;20074;-96
2022/06/22 10:18:40;;;;;;;7.00;5.40;;;;;;;31.76;28.74;98411.25;6216970;23;20021;-93
2022/06/22 10:21:32;;;;;;;10.93;6.05;;;;;;;32.01;29.24;98439.41;6199635;23;20470;-92
2022/06/22 10:24:26;;;;;;;8.82;5.72;;;;;;;32.16;28.86;98422.06;6199315;23;20072;-93
2022/06/22 10:27:14;;;;;;;6.60;5.22;;;;;;;32.24;28.29;98419.22;6199644;22;20028;-93
2022/06/22 10:30:14;;;;;;;7.78;5.95;;;;;;;32.02;27.84;98427.34;6200118;22;20017;-93
2022/06/22 10:33:18;;;;;;;9.77;5.40;;;;;;;32.16;28.41;98433.91;6197619;23;20016;-91
2022/06/22 10:36:15;;;;;;;9.02;5.80;;;;;;;32.00;27.36;98425.84;6198575;23;20021;-93
2022/06/22 10:39:05;;;;;;;7.72;5.38;;;;;;;32.24;27.83;98427.47;6161876;23;20021;-91
2022/06/22 10:55:38;;;;;;;8.73;5.80;;;;;;;32.46;27.20;98440.28;5909931;22;6240742;-92
2022/06/22 10:58:39;;;;;;;7.95;5.97;;;;;;;32.14;27.08;98414.00;6180711;23;20028;-93
2022/06/22 11:02:06;;;;;;;6.80;5.85;;;;;;;32.06;27.54;98409.44;6212174;23;20540;-94
2022/06/22 11:05:22;;;;;;;8.18;6.00;;;;;;;32.54;28.25;98415.44;6110172;23;20024;-94
2022/06/22 11:08:35;;;;;;;12.68;6.13;;;;;;;32.50;26.45;98397.56;6108102;23;20019;-94
2022/06/22 11:11:30;;;;;;;8.48;6.28;;;;;;;32.32;26.69;98405.38;6016182;23;20023;-92
2022/06/22 11:14:34;;;;;;;8.50;5.97;;;;;;;32.61;25.52;98400.91;6020710;23;20023;-93
2022/06/22 11:17:23;;;;;;;8.13;5.40;;;;;;;32.74;25.02;98398.34;6012880;23;20031;-91
2022/06/22 11:20:54;;;;;;;7.38;5.47;;;;;;;32.76;24.80;98410.00;6017563;23;20078;-92
2022/06/22 11:24:03;;;;;;;9.88;5.72;;;;;;;32.85;24.67;98373.03;6019829;23;20023;-91
2022/06/22 11:41:11;;;;;;;9.17;6.07;;;;;;;33.27;23.90;98352.13;6255558;22;1442572;-93
2022/06/22 11:44:30;;;;;;;6.97;6.17;;;;;;;33.37;23.54;98365.56;6239291;23;20095;-94
2022/06/22 11:47:01;;;;;;;8.75;6.00;;;;;;;33.46;23.97;98342.31;6266308;23;20023;-90
2022/06/22 11:49:40;;;;;;;8.43;5.55;;;;;;;33.40;24.07;98369.84;6233348;23;20485;-90
2022/06/22 11:52:42;;;;;;;7.93;5.30;;;;;;;33.32;23.32;98344.13;6231320;23;20055;-90
2022/06/22 11:55:20;;;;;;;7.03;5.72;;;;;;;33.53;22.83;98348.78;6235410;23;20024;-90
2022/06/22 11:58:25;;;;;;;8.00;5.28;;;;;;;33.99;22.95;98379.72;6232646;23;20043;-92
2022/06/22 12:01:17;;;;;;;8.95;5.18;;;;;;;33.76;22.34;98351.31;6233892;23;20099;-91
2022/06/22 12:04:28;;;;;;;7.32;5.35;;;;;;;33.60;23.17;98348.00;6234254;23;20326;-91
2022/06/22 12:07:26;;;;;;;8.85;5.68;;;;;;;33.98;23.06;98373.31;6232678;23;20102;-92
2022/06/22 12:10:36;;;;;;;7.68;5.60;;;;;;;34.06;22.98;98356.59;6233238;23;20099;-92
2022/06/22 12:13:15;;;;;;;8.38;5.22;;;;;;;34.24;22.86;98344.22;6147877;23;20017;-92
2022/06/22 12:15:55;;;;;;;6.90;5.47;;;;;;;34.23;21.88;98342.53;6170613;23;20025;-93
2022/06/22 12:18:41;;;;;;;7.53;5.30;;;;;;;34.14;22.18;98334.41;6170789;23;20018;-90
2022/06/22 12:21:46;;;;;;;10.00;5.90;;;;;;;33.84;22.49;98357.75;6169875;23;20092;-92
2022/06/22 12:24:31;;;;;;;6.90;5.40;;;;;;;33.83;22.77;98336.72;6171777;23;20022;-94
2022/06/22 12:27:08;;;;;;;7.47;5.90;;;;;;;33.58;22.68;98352.84;6170827;23;20021;-90
2022/06/22 12:30:02;;;;;;;9.63;5.70;;;;;;;33.97;22.52;98335.75;6170539;23;20356;-90
2022/06/22 12:32:46;;;;;;;10.43;6.10;;;;;;;33.85;22.98;98320.81;6171915;23;20041;-92
2022/06/22 12:35:29;;;;;;;6.75;5.57;;;;;;;33.86;23.20;98350.13;6171923;23;20021;-93
2022/06/22 12:38:05;;;;;;;7.60;5.45;;;;;;;34.15;22.51;98338.84;6171725;23;20018;-90
2022/06/22 12:40:48;;;;;;;7.68;5.68;;;;;;;34.24;22.54;98317.47;6166643;23;20069;-92
2022/06/22 12:43:53;;;;;;;7.60;5.40;;;;;;;34.16;22.70;98335.06;6162829;23;20021;-93
2022/06/22 12:46:43;;;;;;;10.35;6.13;;;;;;;34.05;22.43;98335.59;6162721;23;20022;-94
2022/06/22 12:49:52;;;;;;;6.80;5.20;;;;;;;34.16;22.22;98354.38;6212921;23;20403;-93
2022/06/22 12:52:33;;;;;;;21.45;5.90;;;;;;;33.54;21.90;98344.94;6222555;23;20031;-91
2022/06/22 12:55:08;;;;;;;7.63;5.03;;;;;;;33.85;22.18;98329.09;6222367;23;20023;-92
2022/06/22 12:57:41;;;;;;;9.05;5.63;;;;;;;33.67;21.39;98322.19;6220493;23;20027;-92
2022/06/22 13:00:15;;;;;;;8.38;5.47;;;;;;;33.75;21.28;98324.78;6222868;23;20028;-96
2022/06/22 13:02:47;;;;;;;6.53;5.20;;;;;;;34.08;22.23;98329.66;6221886;23;20021;-94
2022/06/22 13:05:22;;;;;;;8.23;6.05;;;;;;;34.24;22.78;98322.13;6221892;23;20023;-92
2022/06/22 13:07:56;;;;;;;8.38;5.10;;;;;;;34.06;21.91;98329.03;6223934;23;20021;-93
2022/06/22 13:10:25;;;;;;;7.85;5.88;;;;;;;34.69;22.99;98323.44;6221190;23;20017;-93
2022/06/22 13:12:57;;;;;;;11.38;7.07;;;;;;;34.52;22.92;98322.91;6221794;23;20035;-93
2022/06/22 13:15:29;;;;;;;9.35;6.30;;;;;;;34.84;22.55;98320.50;6220785;23;20016;-94
2022/06/22 13:18:05;;;;;;;8.27;6.10;;;;;;;35.10;22.79;98316.09;6219709;23;20020;-94
2022/06/22 13:20:50;;;;;;;9.07;6.00;;;;;;;35.00;22.59;98310.97;6220490;23;20099;-92
2022/06/22 13:23:49;;;;;;;8.20;5.75;;;;;;;35.03;21.74;98304.19;6221606;23;20021;-92
2022/06/22 13:26:41;;;;;;;16.30;6.63;;;;;;;35.07;22.08;98324.78;6221697;23;20024;-94
2022/06/22 13:29:24;;;;;;;7.95;5.65;;;;;;;35.08;22.34;98334.78;6224469;23;20013;-91
2022/06/22 13:31:56;;;;;;;9.75;6.03;;;;;;;34.65;23.26;98326.81;6223487;23;20035;-93
2022/06/22 13:34:28;;;;;;;10.70;6.07;;;;;;;34.64;22.50;98316.84;6224802;23;20023;-95
2022/06/22 13:37:11;;;;;;;10.43;6.50;;;;;;;34.57;23.04;98325.06;6224885;23;20017;-96
2022/06/22 13:39:49;;;;;;;7.97;6.30;;;;;;;33.95;23.33;98326.84;6224324;23;20013;-94
2022/06/22 13:42:33;;;;;;;9.02;6.20;;;;;;;34.10;23.63;98338.59;6199853;23;20025;-93
2022/06/22 13:45:17;;;;;;;8.55;5.93;;;;;;;34.52;23.00;98347.75;6195646;23;20021;-94
2022/06/22 13:48:17;;;;;;;12.48;7.13;;;;;;;33.99;23.66;98319.00;6193956;23;20095;-92
2022/06/22 13:51:39;;;;;;;8.88;6.88;;;;;;;33.54;24.78;98327.56;6166548;23;20025;-91
2022/06/22 13:54:54;;;;;;;12.90;7.18;;;;;;;33.64;24.95;98317.06;6193863;23;20027;-91
2022/06/22 13:57:31;;;;;;;13.32;7.53;;;;;;;33.63;25.51;98326.38;6192827;23;20072;-93
2022/06/22 14:00:08;;;;;;;8.77;7.22;;;;;;;33.53;25.10;98315.69;6193869;23;20017;-92
2022/06/22 14:02:59;;;;;;;12.38;8.05;;;;;;;33.66;25.25;98330.63;6194135;23;20049;-92
2022/06/22 14:05:46;;;;;;;12.07;8.15;;;;;;;34.13;25.28;98354.75;6197027;23;20017;-93
2022/06/22 14:08:43;;;;;;;10.40;6.97;;;;;;;34.03;25.07;98325.81;6196866;23;20021;-93
2022/06/22 14:11:17;;;;;;;9.70;6.88;;;;;;;33.92;25.42;98321.72;6188910;23;20054;-92
2022/06/22 14:13:49;;;;;;;10.38;7.38;;;;;;;34.18;25.27;98321.06;6193229;23;20028;-95
2022/06/22 14:16:26;;;;;;;9.23;7.40;;;;;;;34.15;24.95;98322.31;6192094;23;20321;-93
2022/06/22 14:18:57;;;;;;;10.93;7.18;;;;;;;34.11;24.86;98323.78;6191984;23;20451;-94
2022/06/22 14:21:33;;;;;;;11.20;7.45;;;;;;;34.02;25.36;98326.88;6188616;23;20048;-95
2022/06/22 14:24:08;;;;;;;12.52;7.65;;;;;;;33.76;25.03;98328.41;6191210;23;20048;-94
2022/06/22 14:27:00;;;;;;;10.07;8.07;;;;;;;33.35;25.40;98305.16;6192747;23;20024;-96
2022/06/22 14:29:41;;;;;;;11.57;7.47;;;;;;;33.11;25.93;98313.81;6187991;23;20020;-94
2022/06/22 14:32:16;;;;;;;10.15;7.68;;;;;;;33.25;25.92;98323.09;6194777;23;20025;-96
2022/06/22 14:35:04;;;;;;;10.88;8.23;;;;;;;33.50;26.85;98326.25;6191769;23;20343;-94
2022/06/22 14:37:38;;;;;;;9.95;7.72;;;;;;;33.29;26.33;98346.41;6193109;23;20017;-93
2022/06/22 14:40:13;;;;;;;14.35;8.10;;;;;;;33.35;25.94;98346.50;6192882;23;20017;-93
2022/06/22 14:42:51;;;;;;;9.48;7.97;;;;;;;33.23;26.09;98342.56;6221037;23;20021;-95
2022/06/22 14:45:27;;;;;;;11.70;8.10;;;;;;;33.04;25.96;98310.13;6221886;23;20019;-96
2022/06/22 14:48:02;;;;;;;10.85;8.38;;;;;;;33.09;26.59;98326.94;6222783;23;20085;-94
2022/06/22 14:50:33;;;;;;;11.55;8.23;;;;;;;32.79;26.43;98307.75;6224322;23;20013;-94
2022/06/22 14:53:13;;;;;;;9.80;7.90;;;;;;;32.47;26.49;98312.66;6222806;23;20119;-94
2022/06/22 14:55:48;;;;;;;11.20;8.23;;;;;;;32.62;26.95;98317.28;6222625;23;20027;-95
2022/06/22 14:58:25;;;;;;;10.30;8.15;;;;;;;32.34;26.63;98310.56;6224045;23;20013;-96
2022/06/22 15:00:57;;;;;;;11.13;8.38;;;;;;;32.36;27.06;98315.03;6221188;23;20025;-94
2022/06/22 15:03:53;;;;;;;13.02;8.38;;;;;;;32.17;27.65;98314.59;6225454;23;20017;-94
2022/06/22 15:06:56;;;;;;;9.68;8.52;;;;;;;32.37;28.08;98336.00;6214870;23;20020;-94
2022/06/22 15:09:26;;;;;;;11.82;8.20;;;;;;;32.20;27.69;98313.34;6228357;23;20020;-95
2022/06/22 15:15:25;;;;;;;13.98;8.50;;;;;;;32.41;26.90;98318.06;5120511;27;20384;-94
2022/06/22 15:18:08;;;;;;;12.32;7.82;;;;;;;32.41;27.15;98321.66;5120384;28;20065;-92
2022/06/22 15:20:41;;;;;;;11.27;8.27;;;;;;;32.00;27.00;98321.31;5116877;28;20048;-94
2022/06/22 15:23:19;;;;;;;17.52;8.32;;;;;;;32.15;27.31;98329.56;5120939;28;20051;-93
2022/06/22 15:25:54;;;;;;;10.80;8.27;;;;;;;32.16;27.02;98318.34;5122822;28;20055;-93
2022/06/22 15:28:38;;;;;;;9.35;8.00;;;;;;;32.07;27.02;98325.84;5111332;28;20057;-93
2022/06/22 15:31:27;;;;;;;9.88;7.90;;;;;;;32.08;27.61;98327.59;5121981;28;20048;-94
2022/06/22 15:34:11;;;;;;;10.57;8.15;;;;;;;32.02;27.76;98319.25;5120079;28;20074;-92
2022/06/22 15:37:09;;;;;;;12.15;7.93;;;;;;;31.81;27.91;98331.78;5117421;28;20040;-92
2022/06/22 15:39:49;;;;;;;7.93;6.90;;;;;;;31.75;26.96;98332.56;5119857;28;20039;-93
2022/06/22 15:42:27;;;;;;;9.18;7.05;;;;;;;31.72;26.87;98306.28;5119787;28;20047;-91
2022/06/22 15:44:55;;;;;;;;;;;;;;;31.75;26.96;98346.31;5119053;28;20359;-93
2022/06/22 15:47:42;;;;;;;10.07;6.78;;;;;;;31.33;27.41;98326.53;5120557;28;19941;-94
2022/06/22 15:50:28;;;;;;;10.07;6.72;;;;;;;31.35;27.83;98342.00;5120441;28;20040;-94
2022/06/22 15:53:06;;;;;;;11.30;7.30;;;;;;;31.13;27.88;98317.13;5121121;28;20069;-92
2022/06/22 15:55:41;;;;;;;12.95;6.88;;;;;;;31.16;27.77;98335.13;5121377;28;20040;-93
2022/06/22 15:58:24;;;;;;;10.00;7.05;;;;;;;30.76;27.30;98309.66;5117988;28;20043;-93
2022/06/22 16:00:59;;;;;;;9.80;6.72;;;;;;;30.65;27.59;98297.19;5117880;28;20043;-92
2022/06/22 16:03:42;;;;;;;9.93;6.72;;;;;;;30.77;28.09;98306.69;5118911;28;20065;-92
2022/06/22 16:06:25;;;;;;;8.93;6.55;;;;;;;30.74;28.00;98311.72;5120106;28;20032;-92
2022/06/22 16:09:00;;;;;;;8.68;6.85;;;;;;;30.44;28.33;98279.47;5119256;28;20043;-94
2022/06/22 16:16:39;;;;;;;7.57;6.30;;;;;;;30.76;29.17;98288.53;5164027;27;20316;-91
2022/06/22 16:19:25;;;;;;;7.68;6.63;;;;;;;30.75;28.38;98236.56;5126016;28;20067;-93
2022/06/22 16:22:03;;;;;;;;;;;;;;;31.44;27.89;98242.00;5133929;28;20069;-93
2022/06/22 16:25:04;;;;;;;;;;;;;;;;;;;;;
2022/06/22 16:27:55;;;;;;;11.38;6.50;;;;;;;32.69;26.44;98202.59;5131403;28;20078;-92